Decoded Metar for KGLS (GALVESTON in TX, USA) (IATA:GLS) | Meteo·Mobile Aviation Weather
aviador You're here:

KGLS Decoded Metar

GALVESTON in TX, USA
Report Time2019-01-21 22:52:00
UTC Time2019-01-21 23:44:44
Flight Rules vfr VFR
Wind120° at 08 kt
W.Decomp.*RWY 14: 7.4 kt HW 3 kt LCW
RWY 18: 3.8 kt HW 7.1 kt LCW
W.Rank120° ranks 8
Current wind is below 120° avg. (9.0)
Visibility9999 m
Phenomena:N/A
Clouds:Overcast 042 Hf
Expected CloudBase > 1,600 ft AGL from Temp-Dew spread
Ceiling4,200 ft
Temp16°C (ISA +1)
Dew Point12°C (77% RH)
AAT13.7°C
QNH1021 hPa
Density Alt59 ft
Elevation20 ft
Report Wrong Elevation
Raw Report
KGLS 212252Z 12008KT 10SM OVC042 16/12 A3014 RMK AO2 SLP205
T01560122=

Extra information for KGLS:More info

Metar Taf Metar & Taf Last 4 Metars F.Rules Stats Wind Profile Meteogram Temp Stats Airport Information Weather charts Add Link Nearby VenuesMetar ALERT Operation Metar Decoded Social comments

AIRNAV info for KGLS